Date,TemperatureHighF,TemperatureAvgF,TemperatureLowF,DewpointHighF,DewpointAvgF,DewpointLowF,HumidityHigh,HumidityAvg,HumidityLow,PressureMaxIn,PressureMinIn,WindSpeedMaxMPH,WindSpeedAvgMPH,GustSpeedMaxMPH,PrecipitationSumIn
2013-1-1,25.3,21.7,14.9,17.4,14.4,8.4,78,73,65,30.53,30.38,0,0,0,0.00
2013-1-2,27.9,23.3,16.9,17.4,14.0,9.8,79,68,50,30.53,30.41,0,0,0,0.00
2013-1-3,22.8,15.7,9.1,13.2,8.1,2.6,78,71,56,30.41,30.26,0,0,0,0.00
2013-1-4,28.0,23.6,16.2,17.3,12.1,8.6,74,62,49,30.35,30.29,0,0,0,0.00
2013-1-5,36.1,29.7,26.1,23.0,18.9,14.0,77,64,47,30.32,30.14,8,0,8,0.00
2013-1-6,32.7,28.5,26.1,24.7,21.3,17.8,82,74,56,30.17,30.06,0,0,0,0.00
2013-1-7,37.0,33.7,29.5,35.3,29.9,24.7,94,86,69,30.06,29.82,13,1,13,0.24
2013-1-8,38.5,34.2,31.6,37.7,29.0,21.4,97,82,60,30.11,29.85,10,1,10,0.16
2013-1-9,44.4,38.6,32.7,37.8,26.7,21.4,98,64,43,29.85,29.61,17,3,17,0.04
2013-1-10,32.7,29.2,26.4,25.4,20.9,15.8,85,71,52,29.88,29.79,9,1,9,0.00
2013-1-11,29.7,22.7,12.7,23.2,13.0,5.0,86,67,43,30.17,29.88,12,1,12,0.00
2013-1-12,22.8,17.1,11.1,14.2,9.4,5.1,79,72,52,30.26,30.17,4,0,6,0.00
2013-1-13,21.9,16.6,11.8,11.5,6.8,4.3,72,65,53,30.35,30.26,6,1,6,0.00
2013-1-14,25.3,22.0,17.8,18.1,14.9,8.2,79,74,65,30.41,30.26,6,0,6,0.00
2013-1-15,28.6,24.4,19.4,19.8,16.4,13.2,82,72,54,30.53,30.38,4,0,4,0.00
2013-1-16,28.6,23.9,16.5,21.6,18.7,10.6,85,80,68,30.53,30.47,5,0,5,0.00
2013-1-17,24.8,20.8,15.8,17.7,14.6,9.2,80,77,69,30.50,30.32,4,0,4,0.00
2013-1-18,26.1,19.5,12.4,18.3,13.1,5.8,80,76,69,30.32,30.20,4,0,4,0.00
2013-1-19,27.1,18.5,9.0,20.7,12.4,2.7,84,77,68,30.38,30.29,0,0,0,0.00
2013-1-20,26.1,19.7,14.2,19.9,13.5,7.1,81,76,70,30.47,30.35,4,0,4,0.00
2013-1-21,22.5,16.8,12.6,14.4,9.2,5.0,75,71,63,30.35,30.23,4,0,4,0.00
2013-1-22,23.7,18.2,12.9,15.7,10.5,5.0,79,71,60,30.26,30.14,4,0,4,0.00
2013-1-23,33.1,25.4,17.4,29.9,18.8,10.9,88,76,56,30.14,29.91,4,0,4,0.00
2013-1-24,32.2,27.7,24.3,25.7,20.5,17.8,80,74,61,30.23,30.06,0,0,0,0.00
2013-1-25,37.0,34.1,30.7,32.8,30.0,25.2,90,85,79,30.14,29.91,0,0,0,0.51
2013-1-26,37.2,34.4,32.0,34.9,30.9,26.6,98,87,71,29.94,29.85,9,0,9,0.12
2013-1-27,34.5,30.9,28.4,28.4,23.0,18.5,85,73,53,30.00,29.94,6,0,6,0.00
2013-1-28,34.9,30.7,27.9,29.3,24.2,18.2,87,77,58,29.94,29.85,5,0,5,0.00
2013-1-29,37.9,32.5,29.5,30.3,25.7,20.1,90,77,50,30.14,29.88,6,0,6,0.12
2013-1-30,41.0,34.4,29.8,34.8,30.4,26.0,96,86,58,30.20,30.08,6,0,6,0.08
2013-1-31,43.5,36.4,32.7,38.9,32.9,27.3,98,88,55,30.23,30.14,6,0,6,0.00
2013-2-1,39.2,33.0,28.6,34.3,29.7,24.9,98,88,62,30.38,30.17,6,0,6,0.00
2013-2-2,37.2,32.0,28.9,32.2,29.7,28.4,98,92,74,30.41,30.20,3,0,3,0.00
2013-2-3,36.1,32.1,28.4,32.8,30.1,27.9,98,92,79,30.20,30.06,4,0,4,0.00
2013-2-4,43.0,34.5,29.5,34.5,29.0,23.1,95,82,48,30.11,29.97,9,0,9,0.00
2013-2-5,41.4,34.3,27.3,33.1,29.4,25.3,96,83,55,30.00,29.82,11,1,11,0.00
2013-2-6,43.5,36.7,33.4,29.3,25.2,20.0,80,64,41,30.06,29.91,10,1,10,0.00
2013-2-7,42.8,36.0,32.2,30.8,27.0,22.8,85,70,50,30.03,29.91,5,0,5,0.00
2013-2-8,39.7,33.7,26.8,34.4,28.2,21.3,91,81,52,30.11,30.03,4,0,4,0.04
2013-2-9,36.0,29.3,24.3,27.4,23.5,17.8,95,80,53,30.17,30.03,0,0,0,0.00
2013-2-10,36.5,29.2,23.2,26.8,21.1,16.9,87,73,46,30.26,30.17,4,0,4,0.00
2013-2-11,40.5,33.6,28.9,26.2,22.2,17.6,86,64,41,30.20,30.14,6,0,6,0.00
2013-2-12,42.6,36.8,32.7,31.1,24.5,20.6,75,61,44,30.26,30.11,9,1,9,0.00
2013-2-13,47.3,36.2,25.7,31.8,22.9,15.3,85,60,35,30.32,30.11,11,2,11,0.00
2013-2-14,44.4,31.0,23.7,23.7,19.9,16.9,87,65,38,30.47,30.32,7,0,7,0.00
2013-2-15,45.1,32.4,23.2,27.3,21.7,19.1,86,67,41,30.47,30.23,5,0,5,0.00
2013-2-16,44.8,33.8,25.2,31.0,24.1,20.2,87,69,43,30.23,29.91,8,0,8,0.00
2013-2-17,48.6,36.5,27.3,23.1,16.8,13.2,69,46,27,30.08,29.94,13,3,13,0.00
2013-2-18,43.5,33.4,24.1,19.5,16.1,12.5,78,51,31,30.08,29.79,8,0,8,0.00
2013-2-19,38.8,34.1,30.9,29.6,26.2,16.4,85,73,51,29.85,29.73,6,0,6,0.12
2013-2-20,37.6,31.6,23.2,30.3,21.4,12.9,83,67,42,29.97,29.85,9,0,9,0.00
2013-2-21,37.0,30.7,22.3,30.6,23.7,15.8,86,75,53,30.00,29.94,8,0,8,0.00
2013-2-22,37.9,34.2,29.1,37.0,29.1,16.7,97,82,50,29.97,29.61,14,2,14,0.08
2013-2-23,42.8,32.9,25.0,21.2,16.4,12.3,81,52,30,30.17,29.70,13,2,13,0.00
2013-2-24,42.1,32.6,24.1,26.9,19.3,15.1,90,61,38,30.29,30.03,9,0,9,0.00
2013-2-25,43.5,36.0,30.0,30.5,20.6,13.5,85,55,39,30.08,29.88,14,2,14,0.16
2013-2-26,42.6,32.9,25.9,22.6,16.5,11.9,79,52,32,30.26,30.08,11,2,11,0.00
2013-2-27,46.2,35.9,28.2,22.1,17.2,13.4,70,48,28,30.23,30.17,8,1,9,0.00
2013-2-28,41.7,36.8,32.4,36.1,28.6,17.4,89,73,52,30.32,30.20,6,0,6,0.12
2013-3-1,53.2,46.8,38.5,44.9,36.9,31.8,97,71,48,30.32,30.26,13,2,13,0.00
2013-3-2,55.9,46.7,37.6,35.4,31.1,27.2,79,56,36,30.26,29.91,11,2,11,0.00
2013-3-3,44.6,37.6,29.5,27.6,11.6,3.6,52,35,21,30.14,29.88,19,4,19,0.00
2013-3-4,46.9,33.0,24.6,16.7,10.3,2.7,66,41,20,30.26,30.06,8,1,8,0.00
2013-3-5,43.7,34.3,27.1,20.8,12.7,6.6,59,41,28,30.06,29.85,8,1,8,0.00
2013-3-6,47.5,38.1,32.5,35.2,25.3,18.2,86,61,41,29.85,29.61,12,1,12,0.08
2013-3-7,45.5,36.5,29.5,36.2,31.0,24.8,93,81,46,30.06,29.85,9,0,9,0.24
2013-3-8,40.6,33.3,30.2,33.1,30.1,26.5,98,89,59,30.11,30.03,4,0,4,0.00
2013-3-9,47.5,36.1,30.0,33.0,26.1,17.4,97,71,32,30.38,30.11,6,0,6,0.00
2013-3-10,47.7,34.5,25.9,32.3,20.5,-99.9,88,65,34,30.38,30.20,11,1,11,0.00
2013-3-11,48.4,37.6,29.3,33.5,21.0,-99.9,94,59,22,30.29,30.17,9,1,9,0.00
2013-3-12,54.1,41.1,34.9,39.7,21.3,-99.9,84,54,39,30.20,30.03,15,1,15,0.04
2013-3-13,59.7,50.2,41.7,38.2,32.4,28.6,71,52,33,30.17,30.08,11,1,11,0.00
2013-3-14,62.8,51.0,42.3,38.7,32.6,22.2,82,52,26,30.14,29.97,9,1,9,0.00
2013-3-15,61.7,47.4,36.9,33.7,23.8,-99.9,70,43,25,30.14,30.03,13,3,13,0.00
2013-3-16,55.4,44.8,37.4,31.3,27.0,16.1,74,51,29,30.03,29.70,14,3,14,0.00
2013-3-17,50.2,37.4,30.0,17.5,11.7,1.3,52,36,14,30.00,29.73,15,4,15,0.00
2013-3-18,47.3,34.5,25.9,20.8,15.1,8.1,63,46,22,30.14,29.94,13,3,14,0.00
2013-3-19,48.6,30.8,21.9,22.7,1.6,-99.9,82,45,16,30.23,29.85,13,1,13,0.00
2013-3-20,54.1,31.1,36.0,42.9,-6.1,-99.9,93,44,39,29.85,29.52,15,3,15,0.20
2013-3-21,46.9,35.0,26.6,20.5,13.2,3.0,68,42,17,30.00,29.82,17,4,17,0.00
2013-3-22,45.3,23.5,24.4,20.5,-12.4,-99.9,78,41,18,30.20,30.00,16,2,16,0.00
2013-3-23,45.1,26.0,19.8,18.2,-4.9,-99.9,79,42,28,30.29,30.17,11,1,11,0.00
2013-3-24,45.0,31.5,20.8,20.8,9.9,-4.3,81,47,15,30.29,30.14,8,1,8,0.00
2013-3-25,50.5,35.0,19.9,16.2,10.9,5.8,66,39,19,30.14,29.97,7,1,7,0.00
2013-3-26,55.8,39.5,24.3,19.9,15.8,12.0,70,41,20,30.00,29.91,8,1,8,0.00
2013-3-27,58.6,43.9,31.8,31.8,22.4,16.9,70,44,27,30.00,29.94,9,0,9,0.00
2013-3-28,63.0,47.4,34.2,35.8,29.3,24.4,87,54,26,30.06,29.97,8,1,8,0.00
2013-3-29,65.5,48.2,35.8,35.6,24.4,10.9,85,45,16,30.17,30.06,12,2,12,0.00
2013-3-30,63.7,46.7,31.6,30.7,24.5,18.6,83,46,18,30.26,30.08,6,1,6,0.00
2013-3-31,66.4,49.1,33.1,34.5,23.5,11.1,85,44,12,30.08,29.91,6,1,6,0.00
2013-4-1,69.1,52.1,36.0,32.0,24.4,12.2,76,39,12,29.97,29.91,7,1,7,0.00
2013-4-2,67.5,53.7,42.4,38.4,29.8,20.8,79,44,21,30.06,29.94,14,2,14,0.00
2013-4-3,64.9,52.2,40.1,38.4,28.4,20.6,82,43,21,30.08,30.00,11,2,11,0.00
2013-4-4,59.2,48.8,40.5,49.8,37.0,25.2,94,66,35,30.00,29.73,9,1,9,0.12
2013-4-5,62.6,50.8,43.7,45.2,34.2,25.9,87,56,30,29.85,29.76,15,2,15,0.00
2013-4-6,59.5,47.9,42.1,42.1,32.2,19.6,86,58,24,29.85,29.79,15,2,15,0.16
2013-4-7,52.7,43.7,37.6,42.8,30.7,22.4,93,62,37,29.82,29.55,15,2,15,0.35
2013-4-8,51.1,41.4,35.1,31.4,23.0,15.0,79,49,30,30.20,29.76,9,1,9,0.00
2013-4-9,57.0,43.2,28.6,26.5,20.2,15.0,76,42,23,30.29,30.17,8,1,8,0.00
2013-4-10,61.3,49.6,39.4,43.1,26.2,21.2,76,41,25,30.17,29.79,19,3,19,0.04
2013-4-11,57.9,44.8,33.6,29.2,21.1,10.3,74,42,18,30.08,29.97,17,2,17,0.00
2013-4-12,59.2,43.2,30.4,37.7,23.6,12.1,88,52,17,30.06,29.61,13,2,13,0.08
2013-4-13,52.3,41.5,31.8,38.0,16.4,2.7,88,42,16,29.79,29.55,17,3,17,0.00
2013-4-14,50.0,37.8,27.3,24.7,19.0,11.2,78,49,28,29.91,29.79,10,2,10,0.00
2013-4-15,49.8,38.4,30.7,21.0,7.8,-1.6,56,30,14,30.08,29.88,13,2,13,0.00
2013-4-16,48.7,36.9,25.7,6.6,1.8,-4.2,33,23,14,30.29,30.08,16,2,16,0.00
2013-4-17,55.2,38.6,21.7,13.0,5.7,-1.0,59,29,13,30.35,30.23,11,2,11,0.00
2013-4-18,60.3,45.5,28.8,23.2,15.7,6.6,42,31,19,30.26,30.11,12,3,12,0.00
2013-4-19,60.8,49.3,42.4,44.1,36.6,22.8,88,65,34,30.11,29.88,13,3,13,0.28
2013-4-20,64.2,50.0,37.0,32.1,23.5,11.3,76,39,17,30.06,29.91,19,4,19,0.00
2013-4-21,55.6,42.7,35.2,35.4,24.7,19.0,72,50,32,30.26,30.03,10,2,10,0.04
2013-4-22,52.2,41.3,28.4,28.0,11.2,-0.5,79,36,13,30.41,30.26,10,2,13,0.00
2013-4-23,60.1,43.5,28.6,18.0,12.2,4.2,44,30,12,30.29,30.14,10,2,10,0.00
2013-4-24,65.8,47.7,28.6,25.9,16.3,4.9,75,34,10,30.23,29.94,13,2,13,0.00
2013-4-25,69.8,53.2,33.4,26.7,17.6,6.7,62,29,10,30.03,29.91,12,2,12,0.00
2013-4-26,74.7,60.1,44.1,31.6,19.7,6.0,41,23,11,30.14,30.03,13,3,13,0.00
2013-4-27,69.1,56.8,48.2,24.3,17.7,7.1,35,22,12,30.08,29.94,15,3,15,0.00
2013-4-28,66.2,54.4,42.1,29.2,18.8,7.1,56,27,13,30.03,29.82,15,4,15,0.00
2013-4-29,64.0,49.1,39.4,24.9,10.0,-1.0,43,22,11,29.94,29.70,20,4,20,0.00
2013-4-30,59.2,40.9,28.0,22.0,11.6,1.3,48,31,13,30.29,29.94,13,1,13,0.00
2013-5-1,59.4,43.9,24.8,23.6,11.3,0.7,78,33,12,30.53,30.29,9,2,9,0.00
2013-5-2,68.2,51.6,30.0,23.6,12.4,4.7,55,25,10,30.53,30.20,8,2,8,0.00
2013-5-3,71.6,59.6,49.1,29.5,20.6,10.6,37,23,12,30.23,30.14,11,2,11,0.00
2013-5-4,71.4,60.2,46.6,33.4,17.6,4.8,50,23,9,30.23,30.08,13,2,13,0.00
2013-5-5,77.0,61.8,45.1,25.6,13.8,6.0,37,18,8,30.08,29.88,10,2,10,0.00
2013-5-6,81.7,63.0,42.8,30.6,18.2,7.8,48,21,7,29.91,29.76,6,1,8,0.00
2013-5-7,84.4,65.1,44.2,34.3,22.1,8.5,62,25,6,29.91,29.79,8,1,8,0.00
2013-5-8,85.5,68.1,48.7,38.1,25.7,15.3,50,24,8,30.03,29.91,8,1,8,0.00
2013-5-9,86.2,68.6,50.4,45.4,26.9,8.7,67,27,6,30.08,30.00,10,1,10,0.00
2013-5-10,87.6,68.7,49.1,40.4,24.7,8.7,63,25,6,30.17,30.06,14,1,14,0.00
2013-5-11,86.4,69.1,51.1,39.4,27.7,8.7,57,26,6,30.11,30.03,10,1,10,0.00
2013-5-12,82.0,67.2,54.9,42.4,35.6,30.6,56,33,19,30.03,29.97,12,1,12,0.00
2013-5-13,64.4,56.1,43.9,51.7,38.8,23.1,86,54,37,30.06,29.94,13,2,13,0.20
2013-5-14,65.7,51.3,38.8,30.7,20.5,8.0,56,32,13,30.11,30.03,11,2,11,0.00
2013-5-15,69.1,53.6,36.0,33.3,22.0,8.9,78,36,12,30.06,29.91,7,0,7,0.00
2013-5-16,66.0,55.4,48.2,44.4,36.1,26.3,82,52,29,29.94,29.85,8,0,8,0.00
2013-5-17,75.6,57.0,42.8,43.6,34.6,26.9,86,48,18,29.94,29.85,9,1,9,0.00
2013-5-18,63.0,54.5,47.7,41.5,32.9,26.7,73,45,31,30.11,29.94,11,1,11,0.00
2013-5-19,73.4,58.4,48.7,35.1,31.7,26.7,53,38,22,30.20,30.08,9,1,9,0.00
2013-5-20,76.5,60.2,43.5,44.1,32.6,18.7,86,42,13,30.23,29.91,9,1,9,0.00
2013-5-21,79.7,56.2,42.6,43.5,35.0,19.6,87,53,13,29.91,29.61,17,2,17,0.20
2013-5-22,51.4,43.7,37.4,42.8,34.5,24.2,95,72,38,30.00,29.79,10,1,10,0.08
2013-5-23,66.7,48.0,33.8,38.9,27.5,15.5,92,51,18,30.03,29.94,8,0,8,0.00
2013-5-24,64.8,47.4,35.1,36.9,30.2,24.6,82,54,27,30.03,29.94,11,1,11,0.00
2013-5-25,72.5,52.0,37.2,39.8,30.0,22.3,86,48,17,30.14,30.00,10,1,10,0.00
2013-5-26,78.6,57.5,40.1,38.7,28.0,12.1,80,40,10,30.20,30.11,11,1,11,0.00
2013-5-27,72.3,58.2,50.9,45.5,34.6,25.4,80,45,19,30.17,30.03,8,2,10,0.00
2013-5-28,63.5,54.5,50.5,52.3,46.2,-99.9,90,75,45,30.29,30.08,9,0,9,0.63
2013-5-29,70.5,53.9,44.2,44.8,36.9,-99.9,83,56,27,30.29,30.14,10,1,10,0.00
2013-5-30,74.5,54.3,42.8,44.9,31.3,14.5,86,48,13,30.50,30.29,10,2,10,0.04
2013-5-31,78.3,56.4,41.5,33.5,26.5,12.4,61,35,10,30.65,30.50,10,2,10,0.00
2013-6-1,78.6,58.2,41.2,38.6,28.3,13.1,78,38,10,30.65,30.38,10,1,10,0.00
2013-6-2,74.5,53.4,45.5,51.2,39.9,28.9,86,63,22,30.38,30.32,12,0,12,0.28
2013-6-3,82.4,58.8,47.1,48.3,39.0,27.0,92,54,15,30.47,30.35,10,1,10,0.08
2013-6-4,84.2,63.2,48.4,44.8,32.8,14.9,82,39,9,30.56,30.47,8,1,8,0.00
2013-6-5,90.1,67.4,47.3,42.6,30.9,15.2,76,32,7,30.47,30.35,10,1,10,0.00
2013-6-6,92.1,72.7,55.9,40.6,31.5,16.7,54,25,7,30.41,30.32,10,1,10,0.00
2013-6-7,88.0,70.7,58.6,37.7,28.7,15.2,40,23,10,30.35,30.26,18,3,18,0.00
2013-6-8,87.3,66.1,47.3,34.7,22.0,8.5,48,22,6,30.47,30.32,11,2,11,0.00
2013-6-9,84.6,65.1,48.9,33.5,19.9,6.7,50,21,6,30.35,30.26,13,2,13,0.00
2013-6-10,85.6,63.8,43.5,30.4,18.1,8.4,50,20,6,30.32,30.17,11,1,11,0.00
2013-6-11,79.9,61.4,45.7,35.0,23.7,9.5,56,26,10,30.41,30.20,14,2,14,0.00
2013-6-12,82.0,58.8,42.8,33.5,21.7,-99.9,55,27,9,30.47,30.38,11,2,11,0.00
2013-6-13,76.5,51.2,44.6,54.2,26.1,-99.9,82,49,20,30.47,30.41,11,1,11,0.43
2013-6-14,72.1,56.5,42.4,39.9,30.5,19.8,77,42,17,30.53,30.47,10,1,10,0.00
2013-6-15,87.4,63.8,41.4,41.3,24.4,8.5,75,30,6,30.47,30.38,7,1,7,0.00
2013-6-16,93.4,69.7,48.7,37.1,25.5,6.4,54,24,4,30.47,30.35,9,1,9,0.00
2013-6-17,91.2,71.9,57.0,41.1,32.5,16.4,47,26,10,30.44,30.26,11,2,11,0.00
2013-6-18,71.8,60.7,55.2,56.8,44.4,33.1,89,59,28,30.38,30.23,11,2,11,0.16
2013-6-19,59.0,54.3,51.1,50.4,46.7,38.9,90,76,54,30.29,30.20,9,1,9,0.28
2013-6-20,51.6,50.3,49.1,49.1,47.1,-99.9,96,90,83,30.47,30.20,11,1,11,1.50
2013-6-21,66.7,55.2,48.9,56.9,44.1,33.3,98,71,34,30.53,30.47,7,0,7,0.04
2013-6-22,73.8,59.3,46.8,46.9,39.5,31.5,89,53,24,30.53,30.38,7,0,7,0.00
2013-6-23,81.5,65.1,47.7,48.7,36.4,21.4,86,42,12,30.38,30.11,8,1,8,0.00
2013-6-24,71.6,60.9,56.1,56.1,49.2,36.6,87,67,38,30.17,30.08,9,1,9,0.28
2013-6-25,76.6,59.8,49.6,54.8,46.7,36.7,92,65,29,30.32,30.17,10,0,10,0.31
2013-6-26,78.1,65.9,55.8,48.3,39.9,33.7,71,41,22,30.53,30.32,10,1,10,0.00
2013-6-27,88.3,68.2,56.3,53.5,44.2,35.0,86,46,19,30.62,30.53,8,1,8,0.00
2013-6-28,94.8,73.4,56.1,52.1,42.3,25.8,79,38,11,30.65,30.50,6,1,6,0.00
2013-6-29,81.0,66.5,61.7,61.8,52.6,42.5,84,62,30,30.56,30.41,8,1,8,0.16
2013-6-30,90.7,75.2,58.1,59.4,45.3,24.5,88,43,13,30.50,30.41,6,0,6,0.00
2013-7-1,97.5,80.5,61.7,50.7,42.4,24.6,66,31,9,30.47,30.35,7,0,7,0.00
2013-7-2,97.0,81.8,64.6,55.8,43.2,24.6,70,31,9,30.47,30.35,8,0,8,0.00
2013-7-3,96.8,79.3,66.0,41.6,28.2,8.5,36,18,6,30.44,30.35,13,1,13,0.00
2013-7-4,90.9,73.6,58.5,35.8,24.2,13.7,37,18,7,30.38,30.26,13,2,13,0.00
2013-7-5,87.3,69.6,53.4,37.7,28.0,14.9,46,23,10,30.35,30.26,13,2,13,0.00
2013-7-6,91.2,70.8,53.8,42.7,29.6,20.1,61,25,10,30.38,30.29,8,1,8,0.00
2013-7-7,90.3,71.6,52.5,42.0,27.5,14.9,62,25,8,30.35,30.26,8,1,8,0.00
2013-7-8,92.1,71.9,60.6,41.1,32.3,17.6,38,25,8,30.53,30.29,10,1,10,0.00
2013-7-9,90.9,71.9,52.3,44.8,30.0,15.4,71,28,8,30.59,30.44,8,1,8,0.00
2013-7-10,96.1,75.1,53.8,45.8,27.3,8.7,64,24,6,30.44,30.23,14,2,14,0.00
2013-7-11,88.9,71.7,57.6,33.6,16.1,5.4,33,13,6,30.35,30.23,13,3,13,0.00
2013-7-12,82.6,65.6,53.1,29.9,15.4,5.1,29,16,7,30.41,30.29,10,2,10,0.00
2013-7-13,87.3,66.9,51.3,32.8,21.2,8.5,47,20,8,30.59,30.38,12,1,12,0.00
2013-7-14,88.7,68.8,46.6,36.8,21.7,6.8,65,23,6,30.56,30.35,11,1,11,0.00
2013-7-15,92.7,70.2,51.6,34.0,17.9,6.7,42,17,5,30.44,30.35,10,1,10,0.00
2013-7-16,91.9,74.0,54.5,35.1,24.4,16.5,37,19,7,30.44,30.32,10,1,10,0.00
2013-7-17,89.8,78.9,68.4,47.2,30.7,16.5,36,19,8,30.53,30.32,10,2,13,0.00
2013-7-18,95.2,76.8,59.7,42.6,26.5,8.5,51,20,5,30.59,30.50,8,1,8,0.00
2013-7-19,97.3,76.8,56.1,42.9,25.1,6.1,54,21,4,30.53,30.38,8,1,8,0.00
2013-7-20,98.4,76.6,55.0,42.0,22.2,6.1,59,20,4,30.41,30.29,12,2,12,0.00
2013-7-21,96.8,77.0,58.8,31.1,13.7,6.1,27,10,4,30.35,30.26,7,2,11,0.00
2013-7-22,97.3,77.3,57.2,37.0,18.8,6.1,35,14,4,30.38,30.26,12,2,12,0.00
2013-7-23,98.6,77.7,55.9,36.0,18.8,6.1,42,14,4,30.50,30.38,9,1,9,0.00
2013-7-24,98.6,77.3,55.8,38.0,21.2,6.1,46,17,4,30.47,30.38,8,1,9,0.00
2013-7-25,98.1,77.4,55.0,39.2,20.7,6.1,49,17,4,30.50,30.41,8,1,8,0.00
2013-7-26,98.8,77.1,54.3,35.3,15.6,4.4,42,13,4,30.53,30.41,11,1,11,0.00
2013-7-27,96.6,73.8,57.0,30.3,13.1,6.6,25,11,4,30.47,30.32,8,2,9,0.00
2013-7-28,89.6,70.5,50.9,31.8,17.1,6.0,39,15,6,30.38,30.29,11,1,11,0.00
2013-7-29,87.6,69.8,52.3,34.6,22.0,9.0,42,20,7,30.41,30.32,8,1,8,0.00
2013-7-30,90.3,72.7,56.7,36.4,23.7,8.9,45,19,6,30.56,30.41,6,0,6,0.00
2013-7-31,90.1,72.7,55.2,36.0,23.5,8.5,42,19,5,30.59,30.44,8,0,8,0.00
2013-8-1,73.6,66.1,58.8,54.5,34.0,18.1,84,33,15,30.44,30.38,8,1,9,0.12
2013-8-2,62.4,58.1,56.8,59.1,54.4,-99.9,98,91,84,30.56,30.41,9,1,9,0.47
2013-8-3,79.9,65.1,57.6,60.6,49.3,36.9,98,63,27,30.59,30.50,6,0,6,0.00
2013-8-4,87.3,68.9,54.3,55.0,42.5,31.7,88,45,16,30.56,30.44,8,1,8,0.00
2013-8-5,89.1,71.7,56.8,52.0,38.0,17.1,80,36,8,30.50,30.38,8,0,8,0.00
2013-8-6,90.7,73.6,56.1,47.6,36.3,16.9,69,31,8,30.50,30.35,8,0,8,0.00
2013-8-7,91.0,74.0,56.7,53.4,31.2,8.6,77,29,5,30.44,30.35,9,0,9,0.00
2013-8-8,89.1,73.3,55.2,43.8,30.0,15.7,62,25,8,30.47,30.38,6,0,6,0.00
2013-8-9,94.1,77.1,60.6,43.9,33.4,17.4,48,23,8,30.41,30.32,8,1,8,0.00
2013-8-10,89.1,75.0,61.9,59.0,40.4,17.5,89,36,8,30.47,30.35,11,1,11,0.20
2013-8-11,88.2,75.3,60.1,51.5,39.0,28.7,72,30,13,30.50,30.41,8,1,8,0.00
2013-8-12,87.8,74.1,58.3,50.2,36.4,16.9,69,30,8,30.50,30.41,8,0,8,0.00
2013-8-13,87.4,72.8,60.1,46.4,33.1,17.1,57,27,8,30.59,30.47,7,0,7,0.00
2013-8-14,90.9,73.6,56.3,46.7,33.9,17.4,61,29,7,30.50,30.35,8,0,8,0.00
2013-8-15,89.6,75.0,62.1,42.4,30.5,16.5,45,23,8,30.47,30.38,11,1,11,0.00
2013-8-16,88.3,73.5,59.4,44.5,31.4,16.7,56,25,8,30.50,30.41,11,1,12,0.00
2013-8-17,88.2,72.2,56.5,44.8,33.8,17.5,61,28,8,30.53,30.44,12,2,12,0.00
2013-8-18,84.7,70.5,55.2,38.9,28.5,9.7,51,24,8,30.59,30.47,11,2,11,0.00
2013-8-19,84.2,71.5,58.1,38.1,26.4,16.5,37,20,9,30.53,30.41,13,3,13,0.00
2013-8-20,82.2,67.3,52.7,36.1,21.2,6.0,46,21,7,30.56,30.44,9,1,9,0.00
2013-8-21,84.9,66.2,46.9,32.6,21.1,8.7,47,21,6,30.59,30.47,7,0,7,0.00
2013-8-22,88.7,69.9,51.4,34.3,24.3,14.3,45,22,8,30.50,30.32,10,0,10,0.00
2013-8-23,83.1,71.7,63.1,41.3,34.5,14.3,40,27,12,30.38,30.29,9,1,9,0.00
2013-8-24,82.6,67.5,54.3,46.2,35.0,22.0,66,34,12,30.38,30.26,8,1,8,0.00
2013-8-25,83.7,68.1,56.8,54.4,41.1,32.1,84,42,16,30.44,30.29,13,1,13,0.08
2013-8-26,78.4,66.3,55.2,54.7,39.9,23.9,83,44,15,30.50,30.41,10,1,10,0.00
2013-8-27,81.3,66.2,51.6,47.1,34.6,21.9,74,37,12,30.50,30.35,8,0,8,0.00
2013-8-28,83.5,69.0,56.8,41.6,34.1,22.6,53,30,11,30.44,30.29,11,1,11,0.00
2013-8-29,81.9,67.3,55.9,43.5,38.0,27.1,62,37,14,30.53,30.38,12,1,12,0.00
2013-8-30,79.3,68.2,58.5,47.0,33.2,15.6,64,30,10,30.62,30.53,13,1,13,0.00
2013-8-31,81.9,64.3,47.5,40.9,26.7,10.3,66,29,7,30.62,30.44,6,0,6,0.00
2013-9-1,90.3,69.6,51.3,33.8,26.3,14.9,48,24,7,30.44,30.29,11,1,11,0.00
2013-9-2,81.0,66.3,57.4,49.3,40.7,28.1,73,41,21,30.44,30.32,14,0,14,0.00
2013-9-3,85.3,70.4,59.0,50.3,43.8,34.8,69,42,18,30.50,30.41,9,0,9,0.00
2013-9-4,88.7,72.5,59.5,59.1,42.8,30.1,82,38,13,30.56,30.44,17,0,17,0.08
2013-9-5,75.7,68.2,61.5,65.8,56.5,48.1,90,69,41,30.53,30.38,11,0,11,0.31
2013-9-6,68.7,61.6,57.7,58.9,47.9,35.7,86,64,33,30.62,30.41,12,1,12,0.04
2013-9-7,73.0,60.9,53.8,51.4,44.5,32.4,84,58,24,30.62,30.53,8,0,8,0.04
2013-9-8,72.1,53.9,52.7,51.9,33.9,-99.9,92,62,31,30.59,30.47,6,0,6,0.00
2013-9-9,79.9,60.9,52.9,48.8,28.5,-99.9,76,37,17,30.53,30.44,6,0,6,0.00
2013-9-10,82.8,66.6,53.1,50.6,38.9,22.6,78,42,11,30.56,30.47,3,0,5,0.00
2013-9-11,87.3,71.8,58.5,41.3,33.3,22.6,46,27,11,30.59,30.50,7,0,7,0.00
2013-9-12,88.2,73.8,63.3,39.7,30.2,16.8,39,22,8,30.53,30.38,10,0,10,0.00
2013-9-13,88.0,69.5,54.0,47.5,34.9,16.7,70,34,8,30.41,30.26,6,0,6,0.00
2013-9-14,88.7,71.8,56.8,45.9,30.0,14.3,60,28,8,30.44,30.32,8,0,8,0.00
2013-9-15,87.1,73.3,60.8,53.9,27.9,14.6,78,22,8,30.38,30.20,17,1,17,0.04
2013-9-16,69.8,61.4,56.5,56.6,45.1,34.3,84,58,28,30.41,30.26,9,1,9,0.00
2013-9-17,73.2,58.0,47.7,46.0,37.8,28.8,78,50,22,30.35,30.20,11,1,11,0.00
2013-9-18,67.6,55.9,48.9,47.7,35.8,22.8,87,52,20,30.56,30.26,12,1,12,0.04
2013-9-19,68.9,53.9,40.6,37.3,27.6,-99.9,76,41,15,30.62,30.44,12,0,12,0.00
2013-9-20,75.7,58.5,44.8,34.8,25.7,-99.9,65,34,10,30.44,30.08,8,0,8,0.00
2013-9-21,67.8,58.5,49.3,39.8,29.9,25.2,58,34,24,30.23,30.08,11,1,11,0.00
2013-9-22,63.3,53.5,44.2,46.1,35.3,24.5,83,53,25,30.23,30.17,13,2,13,0.04
2013-9-23,62.2,53.9,45.1,46.9,34.6,26.3,85,52,27,30.44,30.23,12,2,12,0.00
2013-9-24,63.3,52.3,45.5,48.7,34.3,21.8,85,53,26,30.41,30.26,8,1,9,0.16
2013-9-25,57.2,48.6,41.9,39.4,34.5,28.9,80,60,36,30.38,30.26,6,0,8,0.04
2013-9-26,62.8,50.1,40.6,39.3,27.3,13.5,83,48,16,30.53,30.38,8,0,8,0.00
2013-9-27,56.8,48.3,40.5,42.1,29.7,22.1,82,51,28,30.53,30.41,14,2,14,0.00
2013-9-28,58.6,52.3,47.3,50.4,46.0,40.7,90,80,60,30.44,30.00,17,3,17,0.39
2013-9-29,57.0,50.7,43.7,48.8,35.0,28.1,90,58,36,30.20,29.97,18,4,18,0.20
2013-9-30,61.2,49.9,41.5,44.8,30.6,23.2,88,51,26,30.38,29.94,18,3,18,0.08
2013-10-1,55.9,44.3,36.3,41.5,32.1,25.7,79,63,34,30.59,30.38,8,1,8,0.12
2013-10-2,54.0,44.1,36.1,38.7,28.9,23.8,88,58,33,30.65,30.50,7,0,7,0.00
2013-10-3,57.2,44.8,33.6,31.5,23.7,17.4,79,46,22,30.85,30.53,8,0,8,0.00
2013-10-4,57.4,42.4,31.3,31.6,22.0,12.4,82,48,17,30.97,30.85,5,0,7,0.00
2013-10-5,61.2,44.4,31.8,29.7,23.5,18.1,78,47,21,30.88,30.74,6,0,6,0.00
2013-10-6,64.2,46.6,32.2,33.0,27.0,23.6,77,50,24,30.74,30.44,5,0,5,0.00
2013-10-7,63.1,47.5,36.7,41.4,26.6,17.3,77,47,24,30.47,30.32,12,1,12,0.04
2013-10-8,54.5,44.3,38.8,38.6,31.3,21.3,86,62,35,30.53,30.35,6,1,12,0.08
2013-10-9,53.8,43.3,35.6,39.1,31.7,25.9,97,67,36,30.59,30.41,9,0,9,0.00
2013-10-10,56.1,45.8,37.0,36.1,30.5,24.0,78,58,31,30.50,30.35,10,0,10,0.00
2013-10-11,53.8,41.0,32.7,33.9,26.2,18.2,96,61,26,30.62,30.50,5,0,5,0.00
2013-10-12,55.0,44.7,37.2,29.8,24.4,19.9,65,46,30,30.65,30.53,8,0,8,0.00
2013-10-13,53.2,39.2,28.4,29.8,22.8,17.9,83,54,26,30.76,30.62,6,0,6,0.00
2013-10-14,55.9,39.1,27.0,31.4,20.3,14.3,83,51,20,30.88,30.76,6,0,6,0.00
2013-10-15,54.3,38.5,25.9,28.6,20.6,16.6,82,52,25,30.91,30.68,5,0,5,0.00
2013-10-16,56.8,44.1,36.3,28.1,23.6,19.5,67,46,27,30.68,30.62,6,0,6,0.00
2013-10-17,55.4,40.1,28.8,34.1,27.3,22.5,88,62,35,30.76,30.68,5,0,5,0.00
2013-10-18,57.2,40.7,29.3,33.0,26.3,21.5,91,60,28,30.79,30.68,5,0,5,0.00
2013-10-19,57.2,41.9,30.2,31.6,25.6,23.4,82,55,29,30.68,30.56,5,0,5,0.00
2013-10-20,59.5,43.9,31.1,34.6,28.4,24.9,87,58,31,30.68,30.62,6,0,6,0.00
2013-10-21,60.4,44.8,34.0,36.9,30.6,27.6,86,60,30,30.74,30.65,5,0,5,0.00
2013-10-22,58.1,43.9,33.6,37.8,32.8,28.3,90,67,36,30.74,30.62,4,0,4,0.00
2013-10-23,54.7,43.2,36.0,39.4,34.3,29.7,95,73,40,30.70,30.59,4,0,4,0.00
2013-10-24,53.1,42.3,34.9,38.7,34.6,31.0,93,76,46,30.68,30.59,4,0,4,0.00
2013-10-25,49.5,40.3,33.3,38.0,34.9,28.7,98,82,56,30.79,30.65,4,0,4,0.00
2013-10-26,44.8,38.8,35.2,38.3,35.0,30.1,98,87,58,30.82,30.59,4,0,4,0.00
2013-10-27,48.2,40.9,35.1,45.0,31.6,10.5,98,76,25,30.59,30.32,15,2,15,0.00
2013-10-28,43.7,37.9,32.0,19.0,6.7,-2.5,50,29,18,30.53,30.44,17,3,17,0.00
2013-10-29,45.5,34.5,25.7,12.8,7.7,2.9,44,33,20,30.53,30.44,8,0,8,0.00
2013-10-30,47.3,32.3,21.4,17.4,13.9,9.3,74,48,27,30.59,30.50,4,0,4,0.00
2013-10-31,52.5,40.0,32.5,26.8,21.1,16.9,69,47,31,30.65,30.53,6,0,6,0.00
2013-11-1,50.5,37.1,27.5,33.1,28.2,23.0,93,72,41,30.76,30.53,4,0,4,0.00
2013-11-2,51.3,42.6,36.1,47.3,30.6,16.1,96,66,32,30.53,30.11,21,2,21,0.31
2013-11-3,43.9,36.4,30.6,29.4,20.9,11.4,76,55,29,30.50,30.29,10,2,11,0.00
2013-11-4,38.7,33.3,30.0,28.8,22.6,17.5,89,66,44,30.68,30.50,6,0,6,0.00
2013-11-5,34.9,31.8,27.0,29.9,26.0,17.3,86,79,64,30.70,30.62,0,0,0,0.00
2013-11-6,38.8,35.0,32.4,32.9,30.0,27.3,89,82,71,30.85,30.70,0,0,3,0.16
2013-11-7,42.8,37.8,34.5,42.1,34.5,28.4,98,88,77,30.76,30.29,10,0,10,0.59
2013-11-8,46.9,40.0,32.5,38.5,28.9,20.4,96,67,38,30.68,30.41,13,1,13,0.00
2013-11-9,45.5,36.7,28.9,38.1,28.5,24.0,89,74,47,30.70,30.53,0,0,0,0.04
2013-11-10,44.1,40.1,38.1,34.2,30.8,27.5,82,70,54,30.76,30.65,2,0,2,0.00
2013-11-11,50.5,40.8,36.7,32.6,28.6,25.6,77,63,40,30.88,30.44,5,0,5,0.00
2013-11-12,45.5,40.2,34.5,35.4,30.7,27.6,80,69,52,30.85,29.73,8,0,8,0.00
2013-11-13,46.9,42.5,36.7,41.6,33.4,26.8,87,71,49,30.85,29.64,9,0,9,0.00
2013-11-14,45.5,39.2,34.3,36.8,31.1,24.5,87,74,49,30.74,25.54,6,0,6,0.00
2013-11-15,41.9,36.5,33.3,36.2,29.7,21.6,98,78,46,30.38,24.21,12,2,12,0.24
2013-11-16,42.3,36.1,30.9,34.2,25.2,14.7,92,65,43,29.85,29.26,12,1,12,0.20
2013-11-17,45.0,37.0,28.0,26.0,20.4,14.9,68,51,43,30.11,29.85,13,1,13,0.00
2013-11-18,49.6,43.2,39.9,40.2,23.8,20.9,90,47,36,30.11,29.88,13,2,13,0.04
2013-11-19,54.0,45.2,35.1,40.2,25.7,6.8,90,48,30,30.03,29.79,20,3,20,0.04
2013-11-20,35.2,27.2,21.4,6.8,-6.4,-13.2,31,22,18,30.53,30.03,10,2,12,0.00
2013-11-21,28.9,20.0,11.7,3.0,-1.7,-12.7,57,39,22,30.85,30.59,4,0,4,0.00
2013-11-22,30.9,20.8,11.3,8.2,2.8,-0.6,63,46,32,30.91,30.79,5,0,5,0.00
2013-11-23,32.9,23.1,14.4,9.4,5.3,1.9,67,47,33,30.79,30.50,5,0,5,0.00
2013-11-24,35.1,24.7,16.7,13.1,9.5,6.6,71,53,35,30.59,30.47,3,0,5,0.00
2013-11-25,36.9,27.4,20.3,18.6,13.5,9.8,74,56,40,30.65,30.56,0,0,0,0.00
2013-11-26,35.2,27.4,21.0,20.8,15.6,13.2,76,62,42,30.59,30.41,5,0,5,0.00
2013-11-27,34.2,26.7,19.4,21.8,17.7,13.1,81,69,49,30.44,30.35,4,0,4,0.00
2013-11-28,32.9,25.5,17.2,24.9,18.3,9.8,85,74,58,30.44,30.35,3,0,4,0.00
2013-11-29,30.6,26.3,19.6,26.6,20.9,12.4,86,80,73,30.50,30.41,0,0,0,0.00
2013-11-30,34.5,31.9,27.3,29.9,27.5,23.4,89,84,75,30.50,30.38,0,0,0,0.04
2013-12-1,43.9,39.0,32.7,41.7,34.5,28.7,97,84,67,30.38,29.88,13,1,13,0.35
2013-12-2,42.1,32.2,26.1,35.4,14.8,7.0,77,49,34,30.20,29.85,15,2,15,0.00
2013-12-3,27.5,22.7,14.5,6.6,-8.2,-14.0,41,25,19,30.47,30.20,16,3,16,0.00
2013-12-4,22.3,14.4,7.7,0.8,-6.9,-14.2,49,38,30,30.53,30.47,5,0,5,0.00
2013-12-5,19.8,13.5,8.4,1.6,-2.7,-8.5,55,48,43,30.50,30.44,8,1,8,0.00
2013-12-6,16.0,9.3,5.5,-3.5,-14.0,-23.5,45,34,24,30.50,30.41,10,2,10,0.00
2013-12-7,13.3,5.8,-0.6,-16.8,-23.1,-28.6,24,24,24,30.47,30.20,11,2,11,0.00
2013-12-8,12.7,6.9,-1.1,-17.1,-22.1,-29.1,24,24,24,30.44,30.26,10,1,10,0.00
2013-12-9,19.0,15.3,11.1,-1.1,-8.6,-18.5,47,34,24,30.41,30.29,6,0,6,0.00
2013-12-10,22.5,17.0,9.3,2.9,-0.4,-6.8,58,46,42,30.41,30.26,4,0,5,0.00
2013-12-11,30.2,25.0,20.7,13.3,6.8,1.9,62,46,41,30.41,30.26,5,0,5,0.00
2013-12-12,30.7,25.6,19.9,20.8,14.0,11.4,76,62,48,30.26,30.08,5,0,5,0.00
2013-12-13,34.7,30.9,26.6,24.5,18.6,14.9,75,60,46,30.38,30.11,6,0,6,0.00
2013-12-14,37.6,33.7,30.2,34.2,30.1,24.5,96,87,75,30.38,30.26,5,0,5,0.00
2013-12-15,42.3,35.1,27.9,38.7,29.9,24.7,98,82,52,30.26,30.17,10,1,10,0.00
2013-12-16,43.3,35.8,28.6,35.7,29.0,22.8,96,78,47,30.38,30.26,8,0,8,0.00
2013-12-17,37.4,30.3,24.6,29.1,24.2,20.5,88,78,62,30.29,29.97,4,0,4,0.00
2013-12-18,33.8,29.7,24.6,27.9,24.0,6.8,90,79,47,30.00,29.85,9,0,9,0.00
2013-12-19,31.3,24.8,20.8,6.7,3.8,1.9,45,40,32,30.17,29.97,10,1,10,0.00
2013-12-20,27.0,23.4,17.8,21.2,11.5,1.2,79,61,43,30.08,29.67,8,0,8,0.00
2013-12-21,28.6,24.5,16.9,22.7,17.1,9.4,80,73,61,30.08,29.76,0,0,0,0.00
2013-12-22,32.9,30.4,28.2,26.4,24.6,22.6,83,79,71,30.26,30.08,0,0,0,0.00
2013-12-23,41.2,34.6,29.1,39.9,30.4,21.3,96,85,69,30.26,30.00,14,1,14,0.39
2013-12-24,36.9,28.8,24.1,28.0,22.0,18.4,88,76,49,30.50,30.26,8,1,8,0.00
2013-12-25,28.2,25.1,22.5,22.5,19.4,16.2,87,79,68,30.50,30.38,4,0,4,0.00
2013-12-26,33.1,27.0,21.2,27.3,22.2,15.7,88,82,76,30.38,30.23,0,0,0,0.00
2013-12-27,30.7,26.0,19.9,28.4,21.1,13.2,91,82,72,30.23,30.00,0,0,0,0.00
2013-12-28,29.5,27.3,25.0,25.2,21.2,16.9,89,78,63,30.38,30.14,0,0,0,0.00
2013-12-29,33.1,28.5,23.9,25.8,22.5,19.5,88,78,62,30.38,30.17,6,0,6,0.00
2013-12-30,31.5,27.3,22.5,27.8,22.1,17.6,87,80,73,30.23,30.08,6,0,6,0.00
2013-12-31,33.8,31.5,27.5,29.4,27.2,23.2,90,84,76,30.32,30.06,6,0,6,0.00
2014-1-1,34.3,32.1,30.9,30.9,27.2,23.3,95,82,64,30.41,30.32,4,0,4,0.00
2014-1-2,37.9,33.2,30.2,31.1,26.5,21.4,92,77,52,30.32,29.76,8,0,8,0.00